• Join FlightAware (Why Join?)
  • Login
  • US Flag 
07:48AM EST


 

Airport Tracker/Info


-or-


 

Live Flight TrackerFlight Track Log ✈ UPS1216 ✈ 22-Aug-2013 ✈ KRFD - KBWI

Flight Track Log - Related Links

Times and Time Zones

All times are in EDT time to prevent confusion due to time zone crossing. See the UPS1216 flight status page for this flight to view local times or setup timezone preferences in your user account.

Time Position Orientation Groundspeed Altitude Reporting Facility
EDT Latitude Longitude Course Direction KTS MPH feet Rate Location/Type
04:09AM 42.1830 -89.0920 185° South 165 190 1,300  Level FlightAware
04:09AM 42.1620 -89.0820 161° South 193 222 2,200 1,800 Climbing FlightAware
04:09AM 42.1610 -89.0800 124° Southeast 196 226 2,200 960 Level FlightAware
04:10AM 42.1570 -89.0670 113° Southeast 211 243 2,400 960 Climbing FlightAware
04:10AM 42.1560 -89.0570 98° East 224 258 2,500 1,500 Climbing FlightAware
04:10AM 42.1610 -89.0320 75° East 243 280 3,100 1,680 Climbing FlightAware
04:10AM 42.1630 -89.0200 77° East 252 290 3,300 2,400 Climbing FlightAware
04:10AM 42.1650 -89.0000 82° East 263 303 3,900 3,180 Climbing FlightAware
04:11AM 42.1670 -88.9670 85° East 262 302 5,000 2,820 Climbing FlightAware
04:11AM 42.1700 -88.9260 84° East 279 321 6,000 3,000 Climbing FlightAware
04:11AM 42.1710 -88.8940 88° East 287 330 7,000 3,540 Climbing FlightAware
04:12AM 42.1730 -88.8500 86° East 293 337 8,500 3,540 Climbing FlightAware
04:12AM 42.1750 -88.8200 85° East 297 342 9,500 3,480 Climbing FlightAware
04:13AM 42.1780 -88.7600 86° East 308 354 11,300 3,300 Climbing FlightAware
04:13AM 42.1820 -88.6910 86° East 321 369 13,300 3,120 Climbing FlightAware
04:14AM 42.1860 -88.6160 86° East 340 391 15,100 2,340 Climbing FlightAware
04:14AM 42.1910 -88.5400 85° East 384 442 16,000 2,280 Climbing FlightAware
04:15AM 42.1960 -88.4510 86° East 402 463 17,700 2,820 Climbing FlightAware
04:15AM 42.2000 -88.3690 86° East 413 475 19,200 2,700 Climbing FlightAware
04:16AM 42.2050 -88.2750 86° East 420 483 20,900 2,580 Climbing FlightAware
04:17AM 42.2100 -88.1810 86° East 428 493 22,400 2,400 Climbing FlightAware
04:17AM 42.2150 -88.0830 86° East 438 504 23,800 2,400 Climbing FlightAware
04:18AM 42.2140 -87.9830 91° East 446 513 25,300 2,280 Climbing FlightAware
04:18AM 42.2030 -87.8940 99° East 453 521 26,400 2,100 Climbing FlightAware
04:19AM 42.1900 -87.7920 100° East 462 532 27,700 1,980 Climbing FlightAware
04:20AM 42.1770 -87.6880 100° East 472 543 28,800 1,800 Climbing FlightAware
04:20AM 42.1650 -87.5940 100° East 479 551 29,800 1,740 Climbing FlightAware
04:21AM 42.1500 -87.4850 100° East 490 564 30,800 1,560 Climbing FlightAware
04:21AM 42.1350 -87.3780 101° East 499 574 31,700 1,620 Climbing FlightAware
04:22AM 42.1200 -87.2730 101° East 506 582 32,700 2,220 Climbing FlightAware
04:22AM 42.1020 -87.1610 102° East 497 572 34,300 2,520 Climbing FlightAware
04:23AM 42.0770 -87.0560 108° East 488 562 35,800 2,400 Climbing FlightAware
04:24AM 42.0520 -86.9720 112° Southeast 479 551 37,000 1,980 Climbing FlightAware
04:24AM 42.0230 -86.8710 111° Southeast 476 548 38,000 1,500 Climbing FlightAware
04:25AM 41.9950 -86.7770 112° Southeast 475 547 38,800 1,080 Climbing FlightAware
04:25AM 41.9630 -86.6690 112° Southeast 481 554 39,300 900 Climbing FlightAware
04:26AM 41.9320 -86.5670 112° Southeast 484 557 39,900 780 Climbing FlightAware
04:27AM 41.9030 -86.4710 112° Southeast 487 560 40,300 600 Climbing FlightAware
04:27AM 41.8760 -86.3800 112° Southeast 490 564 40,600 600 Climbing FlightAware
04:28AM 41.8450 -86.2790 112° Southeast 493 567 41,000 300 Climbing FlightAware
04:28AM 41.8120 -86.1690 112° Southeast 496 571 41,000  Level FlightAware
04:29AM 41.7810 -86.0670 112° Southeast 496 571 41,000  Level FlightAware
04:30AM 41.7520 -85.9730 112° Southeast 496 571 41,000  Level FlightAware
04:30AM 41.7200 -85.8680 112° Southeast 495 570 41,000  Level FlightAware
04:31AM 41.6890 -85.7670 112° Southeast 494 568 41,000  Level FlightAware
04:31AM 41.6620 -85.6790 112° Southeast 494 568 41,000  Level FlightAware
04:32AM 41.6290 -85.5730 113° Southeast 492 566 41,000  Level FlightAware
04:32AM 41.5980 -85.4720 112° Southeast 491 565 41,000  Level FlightAware
04:33AM 41.5680 -85.3760 113° Southeast 490 564 41,000  Level FlightAware
04:34AM 41.5400 -85.2860 113° Southeast 491 565 41,000  Level FlightAware
04:34AM 41.5060 -85.1790 113° Southeast 491 565 41,000  Level FlightAware
04:35AM 41.4770 -85.0850 112° Southeast 490 564 41,000  Level FlightAware
04:35AM 41.4430 -84.9770 113° Southeast 490 564 41,000  Level FlightAware
04:36AM 41.4160 -84.8930 113° Southeast 489 563 41,000  Level FlightAware
04:37AM 41.3830 -84.7900 113° Southeast 490 564 41,000  Level FlightAware
04:37AM 41.3560 -84.7060 113° Southeast 489 563 41,000  Level FlightAware
04:38AM 41.3180 -84.5880 113° Southeast 489 563 41,000  Level FlightAware
04:38AM 41.2900 -84.5000 113° Southeast 490 564 41,000  Level FlightAware
04:39AM 41.2570 -84.4000 114° Southeast 490 564 41,000  Level FlightAware
04:39AM 41.2260 -84.3030 113° Southeast 492 566 41,000  Level FlightAware
04:40AM 41.1940 -84.2060 114° Southeast 492 566 41,000  Level FlightAware
04:41AM 41.1610 -84.1040 113° Southeast 493 567 41,000  Level FlightAware
04:41AM 41.1340 -84.0230 114° Southeast 493 567 41,000  Level FlightAware
04:42AM 41.1010 -83.9200 113° Southeast 492 566 41,000  Level FlightAware
04:42AM 41.0680 -83.8210 114° Southeast 492 566 41,000  Level FlightAware
04:43AM 41.0370 -83.7280 114° Southeast 492 566 41,000  Level FlightAware
04:44AM 41.0020 -83.6240 114° Southeast 491 565 41,000  Level FlightAware
04:44AM 40.9730 -83.5360 114° Southeast 488 562 41,000  Level FlightAware
04:45AM 40.9190 -83.3760 114° Southeast 483 556 41,000  Level FlightAware
04:46AM 40.8900 -83.2910 114° Southeast 478 550 41,000  Level FlightAware
04:46AM 40.8550 -83.1870 114° Southeast 474 545 41,000  Level FlightAware
04:47AM 40.8260 -83.1010 114° Southeast 471 542 41,000  Level FlightAware
04:47AM 40.7940 -83.0060 114° Southeast 466 536 41,000  Level FlightAware
04:48AM 40.7630 -82.9170 115° Southeast 462 532 41,000  Level FlightAware
04:49AM 40.7310 -82.8230 114° Southeast 458 527 41,000  Level FlightAware
04:49AM 40.6990 -82.7310 115° Southeast 455 524 41,000  Level FlightAware
04:50AM 40.6710 -82.6490 114° Southeast 454 522 41,000  Level FlightAware
04:50AM 40.6360 -82.5480 115° Southeast 450 518 41,000  Level FlightAware
04:51AM 40.6040 -82.4580 115° Southeast 448 516 41,000  Level FlightAware
04:52AM 40.5720 -82.3650 114° Southeast 446 513 41,000  Level FlightAware
04:52AM 40.5420 -82.2810 115° Southeast 446 513 41,000  Level FlightAware
04:53AM 40.5140 -82.2030 115° Southeast 446 513 41,000  Level FlightAware
04:53AM 40.4760 -82.0970 115° Southeast 444 511 41,000  Level FlightAware
04:54AM 40.4450 -82.0050 114° Southeast 441 507 41,000  Level FlightAware
04:55AM 40.4220 -81.9250 111° Southeast 437 503 41,000  Level FlightAware
04:55AM 40.3970 -81.8190 107° East 437 503 41,000  Level FlightAware
04:56AM 40.3790 -81.7390 106° East 437 503 41,000  Level FlightAware
04:57AM 40.3490 -81.6110 107° East 439 505 41,000  Level FlightAware
04:57AM 40.3300 -81.5310 107° East 441 507 41,000  Level FlightAware
04:58AM 40.3110 -81.4490 107° East 441 507 41,000  Level FlightAware
04:58AM 40.2880 -81.3510 107° East 441 507 41,000  Level FlightAware
04:59AM 40.2700 -81.2730 107° East 441 507 41,000  Level FlightAware
05:00AM 40.2520 -81.1950 107° East 441 507 41,000  Level FlightAware
05:00AM 40.2340 -81.1170 107° East 441 507 41,000  Level FlightAware
05:01AM 40.2030 -80.9980 109° East 866 997 41,000  Level FlightAware
05:01AM 40.1760 -80.8860 107° East 447 514 41,000  Level FlightAware
05:02AM 40.1510 -80.7840 108° East 444 511 41,000  Level FlightAware
05:03AM 40.1290 -80.6930 108° East 444 511 41,000  Level FlightAware
05:03AM 40.1030 -80.5860 108° East 444 511 41,000  Level FlightAware
05:04AM 40.0840 -80.5110 108° East 444 511 41,000  Level FlightAware
05:04AM 40.0600 -80.4120 108° East 448 516 41,000  Level FlightAware
05:05AM 40.0340 -80.3040 107° East 448 516 41,000  Level FlightAware
05:06AM 40.0020 -80.1770 108° East 449 517 41,000  Level FlightAware
05:07AM 39.9780 -80.0800 108° East 451 519 41,000  Level FlightAware
05:07AM 39.9560 -79.9940 108° East 452 520 41,000  Level FlightAware
05:08AM 39.9260 -79.8780 109° East 451 519 41,000  Level FlightAware
05:08AM 39.9060 -79.7970 108° East 452 520 41,000  Level FlightAware
05:09AM 39.8810 -79.7000 109° East 454 522 41,000  Level FlightAware
05:10AM 39.8560 -79.6040 109° East 455 524 41,000  Level FlightAware
05:10AM 39.8350 -79.5210 108° East 456 525 41,000  Level FlightAware
05:11AM 39.8100 -79.4270 109° East 457 526 41,000 -780 Level FlightAware
05:11AM 39.7850 -79.3320 109° East 464 534 40,100 -1,860 Descending FlightAware
05:12AM 39.7610 -79.2410 109° East 466 536 38,800 -2,340 Descending FlightAware
05:12AM 39.7350 -79.1420 109° East 462 532 37,400 -2,220 Descending FlightAware
05:13AM 39.7130 -79.0580 109° East 460 529 36,300 -3,480 Descending FlightAware
05:14AM 39.6850 -78.9560 110° East 486 559 33,400 -3,900 Descending FlightAware
05:14AM 39.6600 -78.8580 108° East 483 556 31,500 -3,420 Descending FlightAware
05:15AM 39.6330 -78.7570 109° East 484 557 29,300 -4,020 Descending FlightAware
05:15AM 39.6100 -78.6680 109° East 491 565 27,000 -4,200 Descending FlightAware
05:16AM 39.5820 -78.5660 110° East 489 563 24,600 -3,600 Descending FlightAware
05:17AM 39.5560 -78.4690 109° East 477 549 22,700 -3,120 Descending FlightAware
05:17AM 39.5340 -78.3850 109° East 468 539 21,100 -3,000 Descending FlightAware
05:18AM 39.5080 -78.2900 110° East 457 526 19,300 -3,120 Descending FlightAware
05:18AM 39.4820 -78.1960 110° East 444 511 17,400 -3,000 Descending FlightAware
05:19AM 39.4580 -78.1080 109° East 431 496 15,700 -2,100 Descending FlightAware
05:19AM 39.4390 -78.0280 107° East 403 464 15,000 -780 Descending FlightAware
05:20AM 39.4260 -77.9620 104° East 380 437 14,900 -120 Descending FlightAware
05:21AM 39.4100 -77.8900 106° East 378 435 14,900  Level FlightAware
05:21AM 39.3970 -77.8270 105° East 380 437 14,900 -120 Level FlightAware
05:22AM 39.3760 -77.7350 106° East 376 433 14,800 -600 Descending FlightAware
05:22AM 39.3620 -77.6690 105° East 359 413 14,200 -1,020 Descending FlightAware
05:23AM 39.3450 -77.5970 107° East 332 382 13,700 -1,020 Descending FlightAware
05:24AM 39.3300 -77.5270 105° East 315 362 13,000 -1,380 Descending FlightAware
05:24AM 39.3140 -77.4580 107° East 313 360 12,000 -1,500 Descending FlightAware
05:25AM 39.3010 -77.4020 107° East 308 354 11,300 -1,440 Descending FlightAware
05:25AM 39.2870 -77.3430 107° East 302 348 10,500 -1,860 Descending FlightAware
05:26AM 39.2780 -77.3060 107° East 294 338 9,500 -2,520 Descending FlightAware
05:26AM 39.2720 -77.2730 103° East 293 337 8,700 -2,760 Descending FlightAware
05:26AM 39.2720 -77.2600 90° East 294 338 8,400 -2,460 Descending FlightAware
05:26AM 39.2770 -77.2140 82° East 290 334 7,600 -2,040 Descending FlightAware
05:27AM 39.2750 -77.1650 93° East 280 322 6,700 -1,800 Descending FlightAware
05:27AM 39.2640 -77.1270 110° East 282 325 5,900 -1,740 Descending FlightAware
05:28AM 39.2510 -77.0890 114° Southeast 281 323 5,200 -1,800 Descending FlightAware
05:28AM 39.2390 -77.0540 114° Southeast 281 323 4,500 -1,740 Descending FlightAware
05:29AM 39.2210 -77.0020 114° Southeast 278 320 3,700 -1,440 Descending FlightAware
05:29AM 39.2140 -76.9820 114° Southeast 277 319 3,400 -1,200 Descending FlightAware
05:29AM 39.2010 -76.9450 114° Southeast 273 314 2,900 -1,080 Descending FlightAware
05:30AM 39.1890 -76.9080 113° Southeast 260 299 2,600 -840 Descending FlightAware
05:30AM 39.1870 -76.8990 106° East 254 292 2,500 -480 Descending FlightAware
05:30AM 39.1850 -76.8690 95° East 239 275 2,400 -180 Descending FlightAware
05:30AM 39.1840 -76.8530 95° East 228 262 2,400 -600 Level FlightAware
05:31AM 39.1820 -76.8270 96° East 219 252 2,100 -960 Descending FlightAware
05:31AM 39.1810 -76.7950 92° East 204 235 1,700 -960 Descending FlightAware
05:32AM 39.1790 -76.7590 94° East 172 198 1,200 -540 Descending FlightAware
05:32AM 39.1770 -76.7320 95° East 162 186 1,100 -180 Descending FlightAware
05:40AM 39.1667 -76.6667 142° Southeast  Level FlightAware Approximate
05:41AM 39.1754 -76.6683 142° Southeast  Level Estimated
05:42AM 39.1754 -76.6683 142° Southeast  Level Estimated
05:43AM 39.1754 -76.6683 142° Southeast  Level Estimated